Time;durP1;ratioP1;P1;durP2;ratioP2;P2;SDS_P1;SDS_P2;PMS_P1;PMS_P2;Temp;Humidity;BMP_temperature;BMP_pressure;BME280_temperature;BME280_humidity;BME280_pressure;Samples;Min_cycle;Max_cycle;Signal;HPM_P1;HPM_P2
2021/04/04 00:02:21;;;;;;;17.87;3.43;;;;;;;;;;10422880;28;20211;-76
2021/04/04 00:07:26;;;;;;;14.50;3.33;;;;;;;;;;10434122;28;20660;-76
2021/04/04 00:12:27;;;;;;;13.20;3.00;;;;;;;;;;10424260;28;20208;-76
2021/04/04 00:17:29;;;;;;;14.67;3.60;;;;;;;;;;10430663;28;20239;-76
2021/04/04 00:22:32;;;;;;;11.23;2.67;;;;;;;;;;10423685;28;20220;-75
2021/04/04 00:27:34;;;;;;;11.77;2.93;;;;;;;;;;10424549;28;20728;-75
2021/04/04 00:32:38;;;;;;;11.87;2.77;;;;;;;;;;10417688;28;20971;-76
2021/04/04 00:37:41;;;;;;;16.90;3.20;;;;;;;;;;10424030;28;21015;-76
2021/04/04 00:42:43;;;;;;;16.90;3.17;;;;;;;;;;10419982;28;20206;-76
2021/04/04 00:47:45;;;;;;;9.80;2.70;;;;;;;;;;10424066;28;20249;-75
2021/04/04 00:52:48;;;;;;;13.47;3.07;;;;;;;;;;10422391;28;20223;-75
2021/04/04 00:57:50;;;;;;;15.37;3.07;;;;;;;;;;10435712;28;20246;-75
2021/04/04 01:02:54;;;;;;;13.03;2.63;;;;;;;;;;10427762;28;20207;-75
2021/04/04 01:07:57;;;;;;;13.47;3.13;;;;;;;;;;10417186;28;20235;-75
2021/04/04 01:13:06;;;;;;;11.67;2.80;;;;;;;;;;10416795;28;20217;-76
2021/04/04 01:18:08;;;;;;;10.57;2.67;;;;;;;;;;10418434;28;20574;-76
2021/04/04 01:23:29;;;;;;;12.57;2.73;;;;;;;;;;10418605;28;20221;-75
2021/04/04 01:28:34;;;;;;;12.43;2.80;;;;;;;;;;10417188;28;20235;-73
2021/04/04 01:33:37;;;;;;;12.50;2.67;;;;;;;;;;10424671;28;20213;-74
2021/04/04 01:38:40;;;;;;;11.97;2.83;;;;;;;;;;10418410;28;20222;-75
2021/04/04 01:43:44;;;;;;;14.27;3.07;;;;;;;;;;10416221;28;20223;-75
2021/04/04 01:48:46;;;;;;;11.10;3.10;;;;;;;;;;10431553;28;20647;-75
2021/04/04 01:53:48;;;;;;;11.10;3.60;;;;;;;;;;10414280;28;20223;-75
2021/04/04 01:58:52;;;;;;;12.10;2.77;;;;;;;;;;10425201;28;20215;-75
2021/04/04 02:03:57;;;;;;;14.77;3.13;;;;;;;;;;10419553;28;20292;-75
2021/04/04 02:09:00;;;;;;;14.27;3.17;;;;;;;;;;10422346;28;20215;-75
2021/04/04 02:14:06;;;;;;;17.37;3.30;;;;;;;;;;10413184;28;20378;-74
2021/04/04 02:19:08;;;;;;;14.47;3.00;;;;;;;;;;10408988;28;20680;-74
2021/04/04 02:24:10;;;;;;;11.87;3.10;;;;;;;;;;10414482;28;20235;-75
2021/04/04 02:29:13;;;;;;;12.33;3.13;;;;;;;;;;10422342;28;20212;-75
2021/04/04 02:34:19;;;;;;;17.10;3.17;;;;;;;;;;10417623;28;20218;-74
2021/04/04 02:39:24;;;;;;;10.87;2.83;;;;;;;;;;10420929;28;20208;-75
2021/04/04 02:44:27;;;;;;;11.97;2.87;;;;;;;;;;10417601;28;20235;-74
2021/04/04 02:49:31;;;;;;;19.13;3.60;;;;;;;;;;10419769;28;20214;-74
2021/04/04 02:54:35;;;;;;;14.60;2.90;;;;;;;;;;10425144;28;20664;-75
2021/04/04 02:59:40;;;;;;;18.67;2.97;;;;;;;;;;10420089;28;20219;-76
2021/04/04 03:04:43;;;;;;;9.53;2.50;;;;;;;;;;10430915;28;20242;-76
2021/04/04 03:09:46;;;;;;;17.73;3.17;;;;;;;;;;10427092;28;20222;-75
2021/04/04 03:14:50;;;;;;;11.97;2.83;;;;;;;;;;10429418;28;20219;-74
2021/04/04 03:19:52;;;;;;;14.43;3.43;;;;;;;;;;10424971;28;20211;-74
2021/04/04 03:24:54;;;;;;;13.13;2.87;;;;;;;;;;10433268;28;20242;-75
2021/04/04 03:29:57;;;;;;;10.60;2.80;;;;;;;;;;10424608;28;20241;-75
2021/04/04 03:34:59;;;;;;;10.33;2.73;;;;;;;;;;10425853;28;20261;-74
2021/04/04 03:40:01;;;;;;;13.10;2.67;;;;;;;;;;10427302;28;20569;-74
2021/04/04 03:45:04;;;;;;;9.80;2.40;;;;;;;;;;10428480;28;20242;-75
2021/04/04 03:50:08;;;;;;;8.47;2.37;;;;;;;;;;10426450;28;20226;-75
2021/04/04 03:55:10;;;;;;;10.67;2.67;;;;;;;;;;10429593;28;20219;-75
2021/04/04 04:00:13;;;;;;;8.73;2.30;;;;;;;;;;10419348;28;20216;-75
2021/04/04 04:05:16;;;;;;;13.30;2.83;;;;;;;;;;10424538;28;20846;-76
2021/04/04 04:10:18;;;;;;;14.47;2.60;;;;;;;;;;10421847;28;20216;-75
2021/04/04 04:15:21;;;;;;;11.70;2.20;;;;;;;;;;10427606;28;20219;-75
2021/04/04 04:20:23;;;;;;;17.87;2.90;;;;;;;;;;10434469;28;20216;-75
2021/04/04 04:25:26;;;;;;;11.80;2.93;;;;;;;;;;10429537;28;20901;-76
2021/04/04 04:30:29;;;;;;;10.13;2.20;;;;;;;;;;10419372;28;20222;-75
2021/04/04 04:35:31;;;;;;;11.07;2.70;;;;;;;;;;10420801;28;20664;-74
2021/04/04 04:40:33;;;;;;;11.20;2.70;;;;;;;;;;10423097;28;20234;-75
2021/04/04 04:45:37;;;;;;;9.80;2.33;;;;;;;;;;10414277;28;20246;-75
2021/04/04 04:50:41;;;;;;;7.57;2.30;;;;;;;;;;10422009;28;20211;-74
2021/04/04 04:55:44;;;;;;;6.77;2.30;;;;;;;;;;10431271;28;20204;-75
2021/04/04 05:00:49;;;;;;;11.03;2.20;;;;;;;;;;10421017;28;20281;-77
2021/04/04 05:05:51;;;;;;;9.20;2.20;;;;;;;;;;10428316;28;20246;-76
2021/04/04 05:10:56;;;;;;;11.77;2.70;;;;;;;;;;10424144;28;20267;-76
2021/04/04 05:16:00;;;;;;;8.87;2.40;;;;;;;;;;10430929;28;20223;-77
2021/04/04 05:21:02;;;;;;;5.70;2.27;;;;;;;;;;10422544;28;20227;-76
2021/04/04 05:26:04;;;;;;;9.00;2.57;;;;;;;;;;10421493;28;20296;-76
2021/04/04 05:31:07;;;;;;;7.07;2.20;;;;;;;;;;10418216;28;20278;-77
2021/04/04 05:36:08;;;;;;;7.23;2.03;;;;;;;;;;10419565;28;20680;-77
2021/04/04 05:41:12;;;;;;;7.77;1.90;;;;;;;;;;10425660;28;20226;-77
2021/04/04 05:46:19;;;;;;;9.67;2.23;;;;;;;;;;10422849;28;20238;-75
2021/04/04 05:51:32;;;;;;;7.90;2.20;;;;;;;;;;10421943;28;20219;-76
2021/04/04 05:56:39;;;;;;;7.90;1.97;;;;;;;;;;10391675;28;20212;-75
2021/04/04 06:01:53;;;;;;;10.17;2.20;;;;;;;;;;10410025;28;20208;-76
2021/04/04 06:07:16;;;;;;;10.90;2.53;;;;;;;;;;10408015;28;20596;-76
2021/04/04 06:12:23;;;;;;;9.33;2.30;;;;;;;;;;10406421;28;20223;-75
2021/04/04 06:17:29;;;;;;;6.13;2.10;;;;;;;;;;10410750;28;20214;-76
2021/04/04 06:22:34;;;;;;;9.20;2.30;;;;;;;;;;10413739;28;20211;-77
2021/04/04 06:27:38;;;;;;;10.03;2.50;;;;;;;;;;10411702;28;20266;-77
2021/04/04 06:32:44;;;;;;;6.13;2.10;;;;;;;;;;10415632;28;20226;-75
2021/04/04 06:38:02;;;;;;;6.93;2.60;;;;;;;;;;10413430;28;20582;-76
2021/04/04 06:43:08;;;;;;;5.63;2.30;;;;;;;;;;10412345;28;20788;-77
2021/04/04 06:48:23;;;;;;;5.60;2.30;;;;;;;;;;10413909;28;20603;-80
2021/04/04 06:53:28;;;;;;;8.20;2.67;;;;;;;;;;10417511;28;20349;-76
2021/04/04 06:58:34;;;;;;;6.07;2.53;;;;;;;;;;10402074;28;20203;-77
2021/04/04 07:03:44;;;;;;;6.50;2.63;;;;;;;;;;10405970;28;20236;-77
2021/04/04 07:08:56;;;;;;;7.73;2.47;;;;;;;;;;10392853;28;20242;-76
2021/04/04 07:14:16;;;;;;;6.77;2.10;;;;;;;;;;10401207;28;20226;-78
2021/04/04 07:19:36;;;;;;;11.00;2.83;;;;;;;;;;10413901;28;20269;-77
2021/04/04 07:24:48;;;;;;;4.20;2.40;;;;;;;;;;10406384;28;20785;-77
2021/04/04 07:29:57;;;;;;;8.27;2.83;;;;;;;;;;10418910;28;20219;-77
2021/04/04 07:35:05;;;;;;;46.07;4.67;;;;;;;;;;10417829;28;20219;-80
2021/04/04 07:40:14;;;;;;;8.53;3.47;;;;;;;;;;10417404;28;20236;-77
2021/04/04 07:45:20;;;;;;;6.13;3.20;;;;;;;;;;10415841;28;20338;-77
2021/04/04 07:50:26;;;;;;;8.70;3.17;;;;;;;;;;10425455;28;20628;-79
2021/04/04 07:55:32;;;;;;;13.53;3.13;;;;;;;;;;10411640;28;20230;-78
2021/04/04 08:00:34;;;;;;;8.40;3.20;;;;;;;;;;10428998;28;20207;-78
2021/04/04 08:05:38;;;;;;;11.93;3.47;;;;;;;;;;10418066;28;20236;-79
2021/04/04 08:10:53;;;;;;;81.73;5.57;;;;;;;;;;10424565;28;20222;-77
2021/04/04 08:15:58;;;;;;;14.70;4.20;;;;;;;;;;10413446;28;20314;-76
2021/04/04 08:21:01;;;;;;;9.07;3.70;;;;;;;;;;10411329;28;20227;-78
2021/04/04 08:26:05;;;;;;;9.97;3.37;;;;;;;;;;10417745;28;20240;-78
2021/04/04 08:31:11;;;;;;;7.43;2.57;;;;;;;;;;10428728;28;20216;-77
2021/04/04 08:36:17;;;;;;;8.50;2.90;;;;;;;;;;10416743;28;20298;-74
2021/04/04 08:41:19;;;;;;;8.40;2.90;;;;;;;;;;10424801;28;20226;-79
2021/04/04 08:46:25;;;;;;;10.17;3.00;;;;;;;;;;10417530;28;20244;-80
2021/04/04 08:51:29;;;;;;;6.97;3.10;;;;;;;;;;10427178;28;20219;-77
2021/04/04 08:56:33;;;;;;;8.13;3.53;;;;;;;;;;10430435;28;20543;-78
2021/04/04 09:01:37;;;;;;;8.93;3.67;;;;;;;;;;10434131;28;20218;-77
2021/04/04 09:06:39;;;;;;;12.50;4.77;;;;;;;;;;10414087;28;20678;-78
2021/04/04 09:11:42;;;;;;;10.37;3.37;;;;;;;;;;10413134;28;20225;-77
2021/04/04 09:16:54;;;;;;;6.73;3.50;;;;;;;;;;10420727;28;20207;-76
2021/04/04 09:21:57;;;;;;;11.00;4.10;;;;;;;;;;10412198;28;20743;-76
2021/04/04 09:27:01;;;;;;;9.33;3.90;;;;;;;;;;10423098;28;20236;-75
2021/04/04 09:32:10;;;;;;;10.97;4.20;;;;;;;;;;10404283;28;20212;-76
2021/04/04 09:37:19;;;;;;;10.03;4.50;;;;;;;;;;10419110;28;20207;-76
2021/04/04 09:42:22;;;;;;;12.27;4.27;;;;;;;;;;10412132;28;20660;-77
2021/04/04 09:47:33;;;;;;;12.77;4.10;;;;;;;;;;10419770;28;20231;-78
2021/04/04 09:52:38;;;;;;;8.40;4.00;;;;;;;;;;10404886;28;20421;-79
2021/04/04 09:57:41;;;;;;;11.27;4.67;;;;;;;;;;10415707;28;20753;-76
2021/04/04 10:02:43;;;;;;;10.63;4.47;;;;;;;;;;10422126;28;20218;-80
2021/04/04 10:07:46;;;;;;;15.20;4.77;;;;;;;;;;10420745;28;20330;-78
2021/04/04 10:12:58;;;;;;;11.30;4.67;;;;;;;;;;10411500;28;20215;-79
2021/04/04 10:18:00;;;;;;;10.67;5.70;;;;;;;;;;10417188;28;20247;-80
2021/04/04 10:23:02;;;;;;;18.50;6.80;;;;;;;;;;10419443;28;20224;-80
2021/04/04 10:28:06;;;;;;;13.83;7.00;;;;;;;;;;10414289;28;20246;-79
2021/04/04 10:33:19;;;;;;;12.83;7.27;;;;;;;;;;10423227;28;20273;-78
2021/04/04 10:38:21;;;;;;;18.47;7.97;;;;;;;;;;10418887;28;20219;-76
2021/04/04 10:43:35;;;;;;;12.53;7.30;;;;;;;;;;10418718;28;20220;-81
2021/04/04 10:48:37;;;;;;;15.33;7.53;;;;;;;;;;10415019;28;20238;-81
2021/04/04 10:53:40;;;;;;;16.27;7.90;;;;;;;;;;10416678;28;20216;-83
2021/04/04 10:58:47;;;;;;;13.50;7.27;;;;;;;;;;10420686;28;20311;-79
2021/04/04 11:03:51;;;;;;;12.07;6.60;;;;;;;;;;10415609;28;20238;-79
2021/04/04 11:08:53;;;;;;;13.40;6.37;;;;;;;;;;10420856;28;20340;-85
2021/04/04 11:13:59;;;;;;;18.87;6.77;;;;;;;;;;10412889;28;20567;-79
2021/04/04 11:19:05;;;;;;;13.07;6.20;;;;;;;;;;10419420;28;20231;-76
2021/04/04 11:24:10;;;;;;;13.77;6.37;;;;;;;;;;10423049;28;20215;-79
2021/04/04 11:29:15;;;;;;;14.20;6.10;;;;;;;;;;10415763;28;20480;-79
2021/04/04 11:34:28;;;;;;;9.87;5.23;;;;;;;;;;10420506;28;20220;-77
2021/04/04 11:39:33;;;;;;;12.30;5.23;;;;;;;;;;10420668;28;20751;-79
2021/04/04 11:44:38;;;;;;;12.03;5.27;;;;;;;;;;10421439;28;20207;-79
2021/04/04 11:49:41;;;;;;;13.20;5.07;;;;;;;;;;10426549;28;20246;-77
2021/04/04 11:54:50;;;;;;;12.23;5.03;;;;;;;;;;10418773;28;20219;-81
2021/04/04 11:59:56;;;;;;;10.37;4.83;;;;;;;;;;10420985;28;20501;-82
2021/04/04 12:05:02;;;;;;;14.17;5.57;;;;;;;;;;10424628;28;20364;-81
2021/04/04 12:10:04;;;;;;;11.40;4.90;;;;;;;;;;10426012;28;20219;-82
2021/04/04 12:15:08;;;;;;;11.57;5.10;;;;;;;;;;10418696;28;20219;-82
2021/04/04 12:20:10;;;;;;;16.80;6.00;;;;;;;;;;10427304;28;20621;-82
2021/04/04 12:25:13;;;;;;;12.70;5.00;;;;;;;;;;10438662;28;20602;-82
2021/04/04 12:30:23;;;;;;;8.93;4.40;;;;;;;;;;10416272;28;20223;-82
2021/04/04 12:35:25;;;;;;;13.07;5.33;;;;;;;;;;10421924;28;20207;-82
2021/04/04 12:40:27;;;;;;;12.30;5.00;;;;;;;;;;10417931;28;20211;-81
2021/04/04 12:45:32;;;;;;;12.47;5.60;;;;;;;;;;10420689;28;20243;-79
2021/04/04 12:50:34;;;;;;;12.73;5.10;;;;;;;;;;10426579;28;20214;-81
2021/04/04 12:55:36;;;;;;;9.50;4.80;;;;;;;;;;10421827;28;20260;-78
2021/04/04 13:00:40;;;;;;;10.93;4.97;;;;;;;;;;10413904;28;20231;-78
2021/04/04 13:05:44;;;;;;;14.57;5.63;;;;;;;;;;10414733;28;20242;-79
2021/04/04 13:10:46;;;;;;;12.23;5.03;;;;;;;;;;10418453;28;20310;-77
2021/04/04 13:15:49;;;;;;;9.93;4.90;;;;;;;;;;10410306;28;20306;-79
2021/04/04 13:20:53;;;;;;;10.57;4.87;;;;;;;;;;10421238;28;20216;-79
2021/04/04 13:25:55;;;;;;;12.33;4.90;;;;;;;;;;10407530;28;20242;-79
2021/04/04 13:31:11;;;;;;;10.60;5.30;;;;;;;;;;10417007;28;20680;-80
2021/04/04 13:36:13;;;;;;;11.23;5.10;;;;;;;;;;10416329;28;20221;-81
2021/04/04 13:41:17;;;;;;;11.40;4.80;;;;;;;;;;10415560;28;20219;-79
2021/04/04 13:46:30;;;;;;;15.33;5.77;;;;;;;;;;10414551;28;20614;-84
2021/04/04 13:51:32;;;;;;;11.23;6.07;;;;;;;;;;10404770;28;20212;-80
2021/04/04 13:56:35;;;;;;;9.67;5.30;;;;;;;;;;10417601;28;20220;-80
2021/04/04 14:01:40;;;;;;;12.43;5.30;;;;;;;;;;10416053;28;20214;-79
2021/04/04 14:06:45;;;;;;;12.97;5.53;;;;;;;;;;10410249;28;20250;-78
2021/04/04 14:11:48;;;;;;;13.57;5.67;;;;;;;;;;10411639;28;20215;-78
2021/04/04 14:16:52;;;;;;;11.90;5.80;;;;;;;;;;10414712;28;20204;-80
2021/04/04 14:21:54;;;;;;;14.10;5.80;;;;;;;;;;10425623;28;20203;-79
2021/04/04 14:26:56;;;;;;;15.37;6.10;;;;;;;;;;10417143;28;20254;-80
2021/04/04 14:31:59;;;;;;;12.23;6.13;;;;;;;;;;10405871;28;20238;-80
2021/04/04 14:37:01;;;;;;;15.23;6.33;;;;;;;;;;10412371;28;20334;-79
2021/04/04 14:42:03;;;;;;;17.47;7.23;;;;;;;;;;10411608;28;20592;-79
2021/04/04 14:47:06;;;;;;;16.17;8.43;;;;;;;;;;10412572;28;20242;-80
2021/04/04 14:52:08;;;;;;;16.60;8.00;;;;;;;;;;10406898;28;20210;-78
2021/04/04 14:57:10;;;;;;;16.10;7.10;;;;;;;;;;10410314;28;20223;-78
2021/04/04 15:02:21;;;;;;;13.67;6.70;;;;;;;;;;10408234;28;20207;-80
2021/04/04 15:07:24;;;;;;;19.27;6.50;;;;;;;;;;10401932;28;20246;-79
2021/04/04 15:12:26;;;;;;;14.03;6.10;;;;;;;;;;10399302;28;20212;-79
2021/04/04 15:17:29;;;;;;;18.17;6.53;;;;;;;;;;10409363;28;20594;-78
2021/04/04 15:22:31;;;;;;;13.40;5.63;;;;;;;;;;10406840;28;20406;-78
2021/04/04 15:27:33;;;;;;;10.40;5.20;;;;;;;;;;10411336;28;20238;-79
2021/04/04 15:32:37;;;;;;;12.67;5.77;;;;;;;;;;10403546;28;20215;-80
2021/04/04 15:37:39;;;;;;;12.37;5.53;;;;;;;;;;10405786;28;20735;-79
2021/04/04 15:42:40;;;;;;;17.90;5.70;;;;;;;;;;10397934;28;20223;-78
2021/04/04 15:47:45;;;;;;;13.93;6.47;;;;;;;;;;10408058;28;20458;-88
2021/04/04 15:52:47;;;;;;;12.47;5.60;;;;;;;;;;10412901;28;20741;-88
2021/04/04 15:57:50;;;;;;;12.20;5.87;;;;;;;;;;10420551;28;20216;-80
2021/04/04 16:02:52;;;;;;;14.70;5.70;;;;;;;;;;10409269;28;20218;-79
2021/04/04 16:07:54;;;;;;;12.37;5.90;;;;;;;;;;10410077;28;20239;-78
2021/04/04 16:12:57;;;;;;;15.20;6.30;;;;;;;;;;10401508;28;20415;-79
2021/04/04 16:17:59;;;;;;;15.97;6.40;;;;;;;;;;10412605;28;20216;-80
2021/04/04 16:23:02;;;;;;;13.57;5.87;;;;;;;;;;10413280;28;20219;-78
2021/04/04 16:28:05;;;;;;;14.93;5.77;;;;;;;;;;10407493;28;20235;-79
2021/04/04 16:33:07;;;;;;;11.40;5.30;;;;;;;;;;10411450;28;20219;-79
2021/04/04 16:38:09;;;;;;;10.23;5.77;;;;;;;;;;10408669;28;20227;-79
2021/04/04 16:43:12;;;;;;;12.10;5.40;;;;;;;;;;10409761;28;20298;-79
2021/04/04 16:48:18;;;;;;;12.87;5.97;;;;;;;;;;10405449;28;20240;-79
2021/04/04 16:53:20;;;;;;;12.17;5.10;;;;;;;;;;10417970;28;20211;-76
2021/04/04 16:58:23;;;;;;;12.30;5.13;;;;;;;;;;10421722;28;20209;-76
2021/04/04 17:03:28;;;;;;;11.23;5.10;;;;;;;;;;10426423;28;20463;-79
2021/04/04 17:08:31;;;;;;;12.03;5.03;;;;;;;;;;10412944;28;20517;-77
2021/04/04 17:13:34;;;;;;;12.57;5.27;;;;;;;;;;10408547;28;20218;-79
2021/04/04 17:18:37;;;;;;;12.70;4.80;;;;;;;;;;10411549;28;20212;-79
2021/04/04 17:23:39;;;;;;;13.07;4.57;;;;;;;;;;10414341;28;20284;-80
2021/04/04 17:28:41;;;;;;;11.00;4.60;;;;;;;;;;10405147;28;20372;-79
2021/04/04 17:33:44;;;;;;;11.93;4.27;;;;;;;;;;10416529;28;20215;-80
2021/04/04 17:38:46;;;;;;;11.63;4.80;;;;;;;;;;10408688;28;20220;-80
2021/04/04 17:43:48;;;;;;;10.27;4.87;;;;;;;;;;10417016;28;20560;-79
2021/04/04 17:48:51;;;;;;;10.13;4.87;;;;;;;;;;10420135;28;20234;-80
2021/04/04 17:53:53;;;;;;;9.90;4.20;;;;;;;;;;10407238;28;20231;-94
2021/04/04 17:58:55;;;;;;;10.17;4.80;;;;;;;;;;10415848;28;20218;-90
2021/04/04 18:03:58;;;;;;;12.33;4.40;;;;;;;;;;10406564;28;20704;-79
2021/04/04 18:14:22;;;;;;;10.90;4.27;;;;;;;;;;10409795;28;20230;-77
2021/04/04 18:19:25;;;;;;;9.83;4.40;;;;;;;;;;10404525;28;20747;-79
2021/04/04 18:24:27;;;;;;;10.03;3.93;;;;;;;;;;10409642;28;20700;-79
2021/04/04 18:29:29;;;;;;;10.23;4.00;;;;;;;;;;10416112;28;20243;-79
2021/04/04 18:34:32;;;;;;;9.63;4.00;;;;;;;;;;10403364;28;20235;-80
2021/04/04 18:39:34;;;;;;;12.83;4.00;;;;;;;;;;10416019;28;20748;-78
2021/04/04 18:44:35;;;;;;;10.40;4.17;;;;;;;;;;10412593;28;20808;-79
2021/04/04 18:49:38;;;;;;;12.90;4.67;;;;;;;;;;10424839;28;20286;-78
2021/04/04 18:54:41;;;;;;;12.87;4.67;;;;;;;;;;10409936;28;20603;-79
2021/04/04 18:59:43;;;;;;;12.40;4.40;;;;;;;;;;10414813;28;20646;-80
2021/04/04 19:04:46;;;;;;;9.90;4.10;;;;;;;;;;10418943;28;20239;-78
2021/04/04 19:09:48;;;;;;;9.67;4.10;;;;;;;;;;10419280;28;20318;-79
2021/04/04 19:14:50;;;;;;;8.83;3.50;;;;;;;;;;10408730;28;20680;-79
2021/04/04 19:19:52;;;;;;;9.83;4.33;;;;;;;;;;10412932;28;20223;-80
2021/04/04 19:24:54;;;;;;;7.37;3.60;;;;;;;;;;10411490;28;20212;-81
2021/04/04 19:29:56;;;;;;;8.30;3.40;;;;;;;;;;10409322;28;20239;-79
2021/04/04 19:34:59;;;;;;;6.77;3.67;;;;;;;;;;10422395;28;20498;-79
2021/04/04 19:40:01;;;;;;;7.83;3.40;;;;;;;;;;10420355;28;20219;-78
2021/04/04 19:45:08;;;;;;;6.10;3.07;;;;;;;;;;10407693;28;20263;-79
2021/04/04 19:50:12;;;;;;;8.30;3.80;;;;;;;;;;10418886;28;20243;-79
2021/04/04 19:55:14;;;;;;;7.53;3.50;;;;;;;;;;10416942;28;20237;-79
2021/04/04 20:00:16;;;;;;;6.97;3.40;;;;;;;;;;10413941;28;20230;-79
2021/04/04 20:05:25;;;;;;;7.27;3.30;;;;;;;;;;10413217;28;20801;-79
2021/04/04 20:10:27;;;;;;;8.90;3.73;;;;;;;;;;10412426;28;20250;-79
2021/04/04 20:15:29;;;;;;;10.00;4.00;;;;;;;;;;10419223;28;20226;-80
2021/04/04 20:20:32;;;;;;;8.80;3.90;;;;;;;;;;10419826;28;20216;-79
2021/04/04 20:25:34;;;;;;;7.23;3.70;;;;;;;;;;10427012;28;20700;-79
2021/04/04 20:30:37;;;;;;;7.70;4.13;;;;;;;;;;10427714;28;20719;-78
2021/04/04 20:35:42;;;;;;;14.57;4.77;;;;;;;;;;10422486;28;20223;-78
2021/04/04 20:40:44;;;;;;;9.80;4.10;;;;;;;;;;10420215;28;20273;-77
2021/04/04 20:45:48;;;;;;;8.67;4.03;;;;;;;;;;10415308;28;20219;-78
2021/04/04 20:50:51;;;;;;;9.40;4.07;;;;;;;;;;10422289;28;20235;-78
2021/04/04 20:55:53;;;;;;;13.00;4.53;;;;;;;;;;10413255;28;20692;-79
2021/04/04 21:00:55;;;;;;;12.80;4.80;;;;;;;;;;10426226;28;20506;-79
2021/04/04 21:05:57;;;;;;;9.13;4.30;;;;;;;;;;10416036;28;20239;-79
2021/04/04 21:10:59;;;;;;;11.93;4.67;;;;;;;;;;10419328;28;20326;-78
2021/04/04 21:16:01;;;;;;;10.67;4.60;;;;;;;;;;10420622;28;20306;-79
2021/04/04 21:21:04;;;;;;;8.40;4.70;;;;;;;;;;10422855;28;20223;-77
2021/04/04 21:26:06;;;;;;;9.40;4.93;;;;;;;;;;10427042;28;20219;-77
2021/04/04 21:31:08;;;;;;;13.17;5.53;;;;;;;;;;10422488;28;20244;-79
2021/04/04 21:36:11;;;;;;;11.90;5.20;;;;;;;;;;10426569;28;20211;-78
2021/04/04 21:41:13;;;;;;;10.53;4.93;;;;;;;;;;10420520;28;20723;-78
2021/04/04 21:46:15;;;;;;;17.23;5.73;;;;;;;;;;10425750;28;20780;-78
2021/04/04 21:51:23;;;;;;;13.77;6.30;;;;;;;;;;10418372;28;20270;-77
2021/04/04 21:56:24;;;;;;;15.20;5.80;;;;;;;;;;10421582;28;20614;-78
2021/04/04 22:01:28;;;;;;;12.77;6.53;;;;;;;;;;10418249;28;20578;-77
2021/04/04 22:06:30;;;;;;;14.33;6.73;;;;;;;;;;10424108;28;20242;-79
2021/04/04 22:11:33;;;;;;;15.93;6.50;;;;;;;;;;10413517;28;20212;-79
2021/04/04 22:16:39;;;;;;;14.17;6.30;;;;;;;;;;10412016;28;20227;-79
2021/04/04 22:21:43;;;;;;;17.60;6.37;;;;;;;;;;10429693;28;20852;-79
2021/04/04 22:26:46;;;;;;;16.90;6.73;;;;;;;;;;10418832;28;20235;-77
2021/04/04 22:31:48;;;;;;;14.90;6.70;;;;;;;;;;10418740;28;20630;-76
2021/04/04 22:36:51;;;;;;;15.23;6.77;;;;;;;;;;10411559;28;20229;-78
2021/04/04 22:41:52;;;;;;;18.00;6.57;;;;;;;;;;10417848;28;20619;-78
2021/04/04 22:46:54;;;;;;;18.60;7.20;;;;;;;;;;10412834;28;20235;-79
2021/04/04 22:51:58;;;;;;;17.80;7.00;;;;;;;;;;10414678;28;20227;-77
2021/04/04 22:57:00;;;;;;;13.63;6.83;;;;;;;;;;10421268;28;20691;-78
2021/04/04 23:02:02;;;;;;;18.10;7.20;;;;;;;;;;10414413;28;20692;-77
2021/04/04 23:07:05;;;;;;;15.90;7.00;;;;;;;;;;10415978;28;20609;-78
2021/04/04 23:12:08;;;;;;;20.10;8.27;;;;;;;;;;10415975;28;20242;-78
2021/04/04 23:17:10;;;;;;;20.30;7.77;;;;;;;;;;10423740;28;20565;-78
2021/04/04 23:22:12;;;;;;;19.97;8.53;;;;;;;;;;10426419;28;20562;-76
2021/04/04 23:27:14;;;;;;;20.60;8.33;;;;;;;;;;10429575;28;20239;-78
2021/04/04 23:32:16;;;;;;;20.60;8.73;;;;;;;;;;10420924;28;20222;-78
2021/04/04 23:37:19;;;;;;;21.93;7.87;;;;;;;;;;10424366;28;20452;-74
2021/04/04 23:42:20;;;;;;;18.60;8.20;;;;;;;;;;10418561;28;20212;-73
2021/04/04 23:47:22;;;;;;;16.47;8.07;;;;;;;;;;10429408;28;20234;-76
2021/04/04 23:52:25;;;;;;;21.30;8.70;;;;;;;;;;10420743;28;20707;-76
2021/04/04 23:57:27;;;;;;;22.77;8.50;;;;;;;;;;10426855;28;20618;-75
